sensor_id;sensor_type;location;lat;lon;timestamp;pressure;altitude;pressure_sealevel;temperature;humidity
25664;BME280;13522;50.018;20.014;2022-10-29T00:02:12;99559.94;;;11.57;100.00
25664;BME280;13522;50.018;20.014;2022-10-29T00:05:24;99564.41;;;11.56;100.00
25664;BME280;13522;50.018;20.014;2022-10-29T00:08:37;99577.71;;;11.56;100.00
25664;BME280;13522;50.018;20.014;2022-10-29T00:11:49;99563.69;;;11.54;100.00
25664;BME280;13522;50.018;20.014;2022-10-29T00:15:01;99569.59;;;11.58;100.00
25664;BME280;13522;50.018;20.014;2022-10-29T00:18:14;99570.82;;;11.54;100.00
25664;BME280;13522;50.018;20.014;2022-10-29T00:21:26;99569.86;;;11.55;100.00
25664;BME280;13522;50.018;20.014;2022-10-29T00:24:39;99561.03;;;11.54;100.00
25664;BME280;13522;50.018;20.014;2022-10-29T00:27:50;99561.98;;;11.53;100.00
25664;BME280;13522;50.018;20.014;2022-10-29T00:31:06;99559.61;;;11.50;100.00
25664;BME280;13522;50.018;20.014;2022-10-29T00:34:18;99548.96;;;11.50;100.00
25664;BME280;13522;50.018;20.014;2022-10-29T00:37:30;99553.57;;;11.48;100.00
25664;BME280;13522;50.018;20.014;2022-10-29T00:40:42;99552.99;;;11.45;100.00
25664;BME280;13522;50.018;20.014;2022-10-29T00:47:37;99543.83;;;11.38;100.00
25664;BME280;13522;50.018;20.014;2022-10-29T00:50:50;99545.53;;;11.39;100.00
25664;BME280;13522;50.018;20.014;2022-10-29T00:54:05;99547.47;;;11.37;100.00
25664;BME280;13522;50.018;20.014;2022-10-29T00:57:23;99538.88;;;11.33;100.00
25664;BME280;13522;50.018;20.014;2022-10-29T01:00:38;99533.70;;;11.31;100.00
25664;BME280;13522;50.018;20.014;2022-10-29T01:03:50;99531.75;;;11.33;100.00
25664;BME280;13522;50.018;20.014;2022-10-29T01:07:05;99537.92;;;11.34;100.00
25664;BME280;13522;50.018;20.014;2022-10-29T01:10:20;99536.84;;;11.37;100.00
25664;BME280;13522;50.018;20.014;2022-10-29T01:13:49;99541.16;;;11.38;100.00
25664;BME280;13522;50.018;20.014;2022-10-29T01:17:11;99531.23;;;11.40;100.00
25664;BME280;13522;50.018;20.014;2022-10-29T01:20:48;99539.69;;;11.45;100.00
25664;BME280;13522;50.018;20.014;2022-10-29T01:24:36;99534.09;;;11.48;100.00
25664;BME280;13522;50.018;20.014;2022-10-29T01:28:04;99528.78;;;11.48;100.00
25664;BME280;13522;50.018;20.014;2022-10-29T01:31:24;99520.94;;;11.46;100.00
25664;BME280;13522;50.018;20.014;2022-10-29T01:34:42;99515.04;;;11.43;100.00
25664;BME280;13522;50.018;20.014;2022-10-29T01:38:06;99513.61;;;11.39;100.00
25664;BME280;13522;50.018;20.014;2022-10-29T01:41:27;99504.06;;;11.36;100.00
25664;BME280;13522;50.018;20.014;2022-10-29T01:44:45;99508.20;;;11.29;100.00
25664;BME280;13522;50.018;20.014;2022-10-29T01:47:58;99510.42;;;11.24;100.00
25664;BME280;13522;50.018;20.014;2022-10-29T01:51:17;99498.93;;;11.23;100.00
25664;BME280;13522;50.018;20.014;2022-10-29T01:54:31;99506.91;;;11.23;100.00
25664;BME280;13522;50.018;20.014;2022-10-29T01:57:42;99502.58;;;11.22;100.00
25664;BME280;13522;50.018;20.014;2022-10-29T02:00:58;99494.74;;;11.21;100.00
25664;BME280;13522;50.018;20.014;2022-10-29T02:04:35;99497.50;;;11.19;100.00
25664;BME280;13522;50.018;20.014;2022-10-29T02:07:53;99501.16;;;11.18;100.00
25664;BME280;13522;50.018;20.014;2022-10-29T02:11:10;99496.69;;;11.19;100.00
25664;BME280;13522;50.018;20.014;2022-10-29T02:14:27;99482.54;;;11.18;100.00
25664;BME280;13522;50.018;20.014;2022-10-29T02:17:41;99480.73;;;11.19;100.00
25664;BME280;13522;50.018;20.014;2022-10-29T02:20:53;99474.70;;;11.17;100.00
25664;BME280;13522;50.018;20.014;2022-10-29T02:24:06;99466.59;;;11.18;100.00
25664;BME280;13522;50.018;20.014;2022-10-29T02:27:18;99470.91;;;11.19;100.00
25664;BME280;13522;50.018;20.014;2022-10-29T02:30:30;99470.48;;;11.14;100.00
25664;BME280;13522;50.018;20.014;2022-10-29T02:33:41;99482.54;;;11.18;100.00
25664;BME280;13522;50.018;20.014;2022-10-29T02:36:53;99463.93;;;11.18;100.00
25664;BME280;13522;50.018;20.014;2022-10-29T02:40:06;99469.25;;;11.18;100.00
25664;BME280;13522;50.018;20.014;2022-10-29T02:43:19;99465.49;;;11.21;100.00
25664;BME280;13522;50.018;20.014;2022-10-29T02:46:31;99470.39;;;11.25;100.00
25664;BME280;13522;50.018;20.014;2022-10-29T02:49:45;99467.36;;;11.30;100.00
25664;BME280;13522;50.018;20.014;2022-10-29T02:52:56;99470.87;;;11.30;100.00
25664;BME280;13522;50.018;20.014;2022-10-29T02:56:09;99483.31;;;11.30;100.00
25664;BME280;13522;50.018;20.014;2022-10-29T02:59:21;99485.59;;;11.34;100.00
25664;BME280;13522;50.018;20.014;2022-10-29T03:02:33;99474.10;;;11.34;100.00
25664;BME280;13522;50.018;20.014;2022-10-29T03:05:45;99476.63;;;11.35;100.00
25664;BME280;13522;50.018;20.014;2022-10-29T03:08:56;99474.95;;;11.34;100.00
25664;BME280;13522;50.018;20.014;2022-10-29T03:12:09;99466.36;;;11.31;100.00
25664;BME280;13522;50.018;20.014;2022-10-29T03:15:20;99462.75;;;11.32;100.00
25664;BME280;13522;50.018;20.014;2022-10-29T03:18:32;99463.98;;;11.28;100.00
25664;BME280;13522;50.018;20.014;2022-10-29T03:21:44;99475.14;;;11.22;100.00
25664;BME280;13522;50.018;20.014;2022-10-29T03:24:56;99474.56;;;11.18;100.00
25664;BME280;13522;50.018;20.014;2022-10-29T03:28:07;99472.75;;;11.19;100.00
25664;BME280;13522;50.018;20.014;2022-10-29T03:31:19;99464.31;;;11.14;100.00
25664;BME280;13522;50.018;20.014;2022-10-29T03:34:31;99454.91;;;11.10;100.00
25664;BME280;13522;50.018;20.014;2022-10-29T03:37:43;99462.16;;;11.08;100.00
25664;BME280;13522;50.018;20.014;2022-10-29T03:40:56;99462.30;;;11.06;100.00
25664;BME280;13522;50.018;20.014;2022-10-29T03:44:10;99474.16;;;11.02;100.00
25664;BME280;13522;50.018;20.014;2022-10-29T03:47:22;99473.31;;;11.02;100.00
25664;BME280;13522;50.018;20.014;2022-10-29T03:50:33;99462.95;;;10.99;100.00
25664;BME280;13522;50.018;20.014;2022-10-29T03:53:45;99453.41;;;10.96;100.00
25664;BME280;13522;50.018;20.014;2022-10-29T03:56:57;99462.34;;;10.95;100.00
25664;BME280;13522;50.018;20.014;2022-10-29T04:00:11;99464.69;;;10.89;100.00
25664;BME280;13522;50.018;20.014;2022-10-29T04:03:23;99460.74;;;10.83;100.00
25664;BME280;13522;50.018;20.014;2022-10-29T04:06:36;99447.25;;;10.75;100.00
25664;BME280;13522;50.018;20.014;2022-10-29T04:09:47;99437.58;;;10.74;100.00
25664;BME280;13522;50.018;20.014;2022-10-29T04:12:59;99442.03;;;10.74;100.00
25664;BME280;13522;50.018;20.014;2022-10-29T04:16:11;99461.34;;;10.76;100.00
25664;BME280;13522;50.018;20.014;2022-10-29T04:19:22;99463.56;;;10.71;100.00
25664;BME280;13522;50.018;20.014;2022-10-29T04:22:34;99478.65;;;10.70;100.00
25664;BME280;13522;50.018;20.014;2022-10-29T04:25:56;99485.67;;;10.71;100.00
25664;BME280;13522;50.018;20.014;2022-10-29T04:29:11;99482.02;;;10.72;100.00
25664;BME280;13522;50.018;20.014;2022-10-29T04:32:22;99476.71;;;10.72;100.00
25664;BME280;13522;50.018;20.014;2022-10-29T04:35:34;99470.31;;;10.75;100.00
25664;BME280;13522;50.018;20.014;2022-10-29T04:38:46;99471.98;;;10.76;100.00
25664;BME280;13522;50.018;20.014;2022-10-29T04:41:59;99472.83;;;10.76;100.00
25664;BME280;13522;50.018;20.014;2022-10-29T04:45:11;99463.19;;;10.75;100.00
25664;BME280;13522;50.018;20.014;2022-10-29T04:48:25;99455.45;;;10.72;100.00
25664;BME280;13522;50.018;20.014;2022-10-29T04:51:37;99464.41;;;10.71;100.00
25664;BME280;13522;50.018;20.014;2022-10-29T04:54:49;99464.65;;;10.68;100.00
25664;BME280;13522;50.018;20.014;2022-10-29T04:58:01;99469.96;;;10.68;100.00
25664;BME280;13522;50.018;20.014;2022-10-29T05:01:13;99457.66;;;10.67;100.00
25664;BME280;13522;50.018;20.014;2022-10-29T05:04:25;99463.94;;;10.66;100.00
25664;BME280;13522;50.018;20.014;2022-10-29T05:07:37;99478.92;;;10.67;100.00
25664;BME280;13522;50.018;20.014;2022-10-29T05:10:49;99484.95;;;10.69;100.00
25664;BME280;13522;50.018;20.014;2022-10-29T05:14:01;99482.88;;;10.73;100.00
25664;BME280;13522;50.018;20.014;2022-10-29T05:17:13;99486.25;;;10.75;100.00
25664;BME280;13522;50.018;20.014;2022-10-29T05:20:25;99484.17;;;10.78;100.00
25664;BME280;13522;50.018;20.014;2022-10-29T05:23:38;99477.77;;;10.81;100.00
25664;BME280;13522;50.018;20.014;2022-10-29T05:26:49;99479.34;;;10.83;100.00
25664;BME280;13522;50.018;20.014;2022-10-29T05:30:01;99473.75;;;10.86;100.00
25664;BME280;13522;50.018;20.014;2022-10-29T05:33:16;99490.69;;;10.85;100.00
25664;BME280;13522;50.018;20.014;2022-10-29T05:36:29;99479.34;;;10.83;100.00
25664;BME280;13522;50.018;20.014;2022-10-29T05:39:41;99476.69;;;10.83;100.00
25664;BME280;13522;50.018;20.014;2022-10-29T05:42:53;99470.96;;;10.88;100.00
25664;BME280;13522;50.018;20.014;2022-10-29T05:46:06;99448.88;;;10.87;100.00
25664;BME280;13522;50.018;20.014;2022-10-29T05:49:17;99445.23;;;10.88;100.00
25664;BME280;13522;50.018;20.014;2022-10-29T05:52:29;99449.33;;;10.92;100.00
25664;BME280;13522;50.018;20.014;2022-10-29T05:55:41;99451.47;;;10.98;100.00
25664;BME280;13522;50.018;20.014;2022-10-29T05:58:53;99468.00;;;11.02;100.00
25664;BME280;13522;50.018;20.014;2022-10-29T06:02:05;99464.38;;;11.03;100.00
25664;BME280;13522;50.018;20.014;2022-10-29T06:05:18;99476.69;;;11.04;100.00
25664;BME280;13522;50.018;20.014;2022-10-29T06:08:30;99464.96;;;11.06;100.00
25664;BME280;13522;50.018;20.014;2022-10-29T06:11:42;99481.35;;;11.11;100.00
25664;BME280;13522;50.018;20.014;2022-10-29T06:14:54;99495.12;;;11.16;100.00
25664;BME280;13522;50.018;20.014;2022-10-29T06:18:06;99485.91;;;11.20;100.00
25664;BME280;13522;50.018;20.014;2022-10-29T06:21:23;99480.31;;;11.23;100.00
25664;BME280;13522;50.018;20.014;2022-10-29T06:24:34;99480.08;;;11.26;100.00
25664;BME280;13522;50.018;20.014;2022-10-29T06:27:46;99478.13;;;11.28;100.00
25664;BME280;13522;50.018;20.014;2022-10-29T06:30:58;99496.23;;;11.34;100.00
25664;BME280;13522;50.018;20.014;2022-10-29T06:34:10;99490.63;;;11.38;100.00
25664;BME280;13522;50.018;20.014;2022-10-29T06:37:23;99492.34;;;11.39;100.00
25664;BME280;13522;50.018;20.014;2022-10-29T06:40:36;99485.89;;;11.41;100.00
25664;BME280;13522;50.018;20.014;2022-10-29T06:43:49;99488.88;;;11.48;100.00
25664;BME280;13522;50.018;20.014;2022-10-29T06:47:00;99491.02;;;11.54;100.00
25664;BME280;13522;50.018;20.014;2022-10-29T06:50:14;99493.28;;;11.58;100.00
25664;BME280;13522;50.018;20.014;2022-10-29T06:53:26;99502.06;;;11.70;100.00
25664;BME280;13522;50.018;20.014;2022-10-29T06:56:38;99495.92;;;11.79;100.00
25664;BME280;13522;50.018;20.014;2022-10-29T06:59:50;99509.88;;;11.92;100.00
25664;BME280;13522;50.018;20.014;2022-10-29T07:03:03;99506.93;;;11.95;100.00
25664;BME280;13522;50.018;20.014;2022-10-29T07:06:14;99522.94;;;12.04;100.00
25664;BME280;13522;50.018;20.014;2022-10-29T07:09:27;99508.47;;;12.28;100.00
25664;BME280;13522;50.018;20.014;2022-10-29T07:12:41;99522.39;;;12.50;100.00
25664;BME280;13522;50.018;20.014;2022-10-29T07:15:54;99522.16;;;12.72;100.00
25664;BME280;13522;50.018;20.014;2022-10-29T07:19:06;99517.67;;;13.01;100.00
25664;BME280;13522;50.018;20.014;2022-10-29T07:22:19;99529.78;;;13.05;100.00
25664;BME280;13522;50.018;20.014;2022-10-29T07:25:33;99534.85;;;13.09;100.00
25664;BME280;13522;50.018;20.014;2022-10-29T07:28:46;99540.88;;;13.49;100.00
25664;BME280;13522;50.018;20.014;2022-10-29T07:31:59;99535.18;;;13.71;100.00
25664;BME280;13522;50.018;20.014;2022-10-29T07:35:11;99533.98;;;14.02;100.00
25664;BME280;13522;50.018;20.014;2022-10-29T07:38:23;99530.77;;;14.35;100.00
25664;BME280;13522;50.018;20.014;2022-10-29T07:41:35;99542.16;;;14.37;100.00
25664;BME280;13522;50.018;20.014;2022-10-29T07:44:47;99530.77;;;14.35;100.00
25664;BME280;13522;50.018;20.014;2022-10-29T07:48:03;99531.84;;;14.42;100.00
25664;BME280;13522;50.018;20.014;2022-10-29T07:51:16;99526.63;;;14.68;100.00
25664;BME280;13522;50.018;20.014;2022-10-29T07:54:28;99522.97;;;14.69;100.00
25664;BME280;13522;50.018;20.014;2022-10-29T07:57:40;99532.22;;;14.74;100.00
25664;BME280;13522;50.018;20.014;2022-10-29T08:00:52;99546.59;;;14.73;100.00
25664;BME280;13522;50.018;20.014;2022-10-29T08:04:04;99539.90;;;14.60;100.00
25664;BME280;13522;50.018;20.014;2022-10-29T08:07:19;99545.22;;;14.69;100.00
25664;BME280;13522;50.018;20.014;2022-10-29T08:10:32;99550.67;;;14.95;100.00
25664;BME280;13522;50.018;20.014;2022-10-29T08:13:45;99548.42;;;15.61;98.13
25664;BME280;13522;50.018;20.014;2022-10-29T08:16:58;99545.86;;;16.36;95.24
25664;BME280;13522;50.018;20.014;2022-10-29T08:20:12;99538.29;;;16.58;90.84
25664;BME280;13522;50.018;20.014;2022-10-29T08:23:24;99543.17;;;16.70;90.60
25664;BME280;13522;50.018;20.014;2022-10-29T08:26:36;99555.11;;;16.84;88.39
25664;BME280;13522;50.018;20.014;2022-10-29T08:29:48;99546.14;;;16.51;90.45
25664;BME280;13522;50.018;20.014;2022-10-29T08:33:00;99554.50;;;16.22;93.04
25664;BME280;13522;50.018;20.014;2022-10-29T08:36:12;99551.80;;;15.89;93.36
25664;BME280;13522;50.018;20.014;2022-10-29T08:39:24;99568.02;;;15.61;94.98
25664;BME280;13522;50.018;20.014;2022-10-29T08:42:41;99562.56;;;15.71;95.65
25664;BME280;13522;50.018;20.014;2022-10-29T08:45:55;99554.05;;;16.61;92.26
25664;BME280;13522;50.018;20.014;2022-10-29T08:49:12;99555.08;;;17.50;87.08
25664;BME280;13522;50.018;20.014;2022-10-29T08:52:29;99553.31;;;18.13;84.83
25664;BME280;13522;50.018;20.014;2022-10-29T08:55:46;99541.83;;;19.04;82.13
25664;BME280;13522;50.018;20.014;2022-10-29T08:59:02;99537.44;;;19.34;79.52
25664;BME280;13522;50.018;20.014;2022-10-29T09:02:18;99533.51;;;19.14;79.85
25664;BME280;13522;50.018;20.014;2022-10-29T09:05:36;99544.30;;;18.53;81.48
25664;BME280;13522;50.018;20.014;2022-10-29T09:08:56;99531.72;;;18.76;81.21
25664;BME280;13522;50.018;20.014;2022-10-29T09:16:20;99532.72;;;19.05;81.81
25664;BME280;13522;50.018;20.014;2022-10-29T09:19:48;99527.41;;;18.97;80.54
25664;BME280;13522;50.018;20.014;2022-10-29T09:23:13;99537.72;;;18.86;80.89
25664;BME280;13522;50.018;20.014;2022-10-29T09:26:30;99538.54;;;18.64;81.51
25664;BME280;13522;50.018;20.014;2022-10-29T09:30:08;99522.94;;;18.82;81.25
25664;BME280;13522;50.018;20.014;2022-10-29T09:33:24;99519.44;;;19.04;80.64
25664;BME280;13522;50.018;20.014;2022-10-29T09:36:37;99507.06;;;18.95;80.28
25664;BME280;13522;50.018;20.014;2022-10-29T09:39:50;99512.09;;;19.21;79.82
25664;BME280;13522;50.018;20.014;2022-10-29T09:43:06;99508.61;;;19.12;80.11
25664;BME280;13522;50.018;20.014;2022-10-29T09:46:28;99513.94;;;19.20;80.17
25664;BME280;13522;50.018;20.014;2022-10-29T09:49:51;99511.63;;;19.40;80.17
25664;BME280;13522;50.018;20.014;2022-10-29T09:53:10;99513.71;;;19.07;80.95
25664;BME280;13522;50.018;20.014;2022-10-29T09:56:22;99513.00;;;19.13;79.58
25664;BME280;13522;50.018;20.014;2022-10-29T09:59:37;99506.82;;;19.04;80.00
25664;BME280;13522;50.018;20.014;2022-10-29T10:02:55;99486.41;;;19.10;79.86
25664;BME280;13522;50.018;20.014;2022-10-29T10:06:10;99495.58;;;19.01;80.13
25664;BME280;13522;50.018;20.014;2022-10-29T10:09:23;99495.81;;;18.91;79.94
25664;BME280;13522;50.018;20.014;2022-10-29T10:12:47;99495.52;;;19.09;81.13
25664;BME280;13522;50.018;20.014;2022-10-29T10:16:00;99493.95;;;19.15;81.37
25664;BME280;13522;50.018;20.014;2022-10-29T10:19:26;99492.09;;;18.92;83.32
25664;BME280;13522;50.018;20.014;2022-10-29T10:22:46;99490.96;;;18.87;84.10
25664;BME280;13522;50.018;20.014;2022-10-29T10:25:59;99483.28;;;18.76;83.16
25664;BME280;13522;50.018;20.014;2022-10-29T10:29:16;99481.95;;;18.72;83.61
25664;BME280;13522;50.018;20.014;2022-10-29T10:32:29;99475.03;;;19.00;84.80
25664;BME280;13522;50.018;20.014;2022-10-29T10:35:41;99473.44;;;19.36;83.49
25664;BME280;13522;50.018;20.014;2022-10-29T10:38:55;99459.08;;;19.58;80.39
25664;BME280;13522;50.018;20.014;2022-10-29T10:42:15;99464.47;;;19.73;79.16
25664;BME280;13522;50.018;20.014;2022-10-29T10:45:33;99449.27;;;19.95;79.90
25664;BME280;13522;50.018;20.014;2022-10-29T10:48:56;99452.31;;;19.92;79.07
25664;BME280;13522;50.018;20.014;2022-10-29T10:52:16;99445.42;;;19.89;76.92
25664;BME280;13522;50.018;20.014;2022-10-29T10:55:32;99437.80;;;20.07;78.94
25664;BME280;13522;50.018;20.014;2022-10-29T10:58:48;99441.60;;;20.42;76.84
25664;BME280;13522;50.018;20.014;2022-10-29T11:02:05;99432.23;;;20.59;73.96
25664;BME280;13522;50.018;20.014;2022-10-29T11:05:24;99433.73;;;20.61;75.15
25664;BME280;13522;50.018;20.014;2022-10-29T11:08:41;99428.04;;;20.21;75.67
25664;BME280;13522;50.018;20.014;2022-10-29T11:11:58;99438.64;;;20.08;77.40
25664;BME280;13522;50.018;20.014;2022-10-29T11:15:11;99431.10;;;20.03;77.10
25664;BME280;13522;50.018;20.014;2022-10-29T11:18:31;99432.31;;;19.71;77.95
25664;BME280;13522;50.018;20.014;2022-10-29T11:30:47;99405.45;;;20.22;79.94
25664;BME280;13522;50.018;20.014;2022-10-29T11:34:07;99404.35;;;20.52;76.87
25664;BME280;13522;50.018;20.014;2022-10-29T11:37:28;99396.77;;;20.83;74.67
25664;BME280;13522;50.018;20.014;2022-10-29T11:43:44;99398.47;;;21.05;73.36
25664;BME280;13522;50.018;20.014;2022-10-29T11:47:11;99406.36;;;20.86;74.87
25664;BME280;13522;50.018;20.014;2022-10-29T11:50:31;99398.31;;;20.50;76.28
25664;BME280;13522;50.018;20.014;2022-10-29T11:57:41;99410.52;;;20.46;77.87
25664;BME280;13522;50.018;20.014;2022-10-29T13:48:14;99363.09;;;19.43;80.80
25664;BME280;13522;50.018;20.014;2022-10-29T14:10:04;99350.30;;;19.22;81.40
25664;BME280;13522;50.018;20.014;2022-10-29T14:32:13;99370.48;;;18.89;82.87
25664;BME280;13522;50.018;20.014;2022-10-29T16:06:50;99395.14;;;17.07;93.97
25664;BME280;13522;50.018;20.014;2022-10-29T16:16:04;99391.45;;;16.84;93.94
25664;BME280;13522;50.018;20.014;2022-10-29T16:29:55;99375.18;;;16.53;94.42
25664;BME280;13522;50.018;20.014;2022-10-29T16:33:10;99376.66;;;16.47;94.77
25664;BME280;13522;50.018;20.014;2022-10-29T16:36:29;99366.09;;;16.38;95.80
25664;BME280;13522;50.018;20.014;2022-10-29T17:01:21;99376.84;;;15.88;98.68
25664;BME280;13522;50.018;20.014;2022-10-29T17:04:33;99381.66;;;15.85;99.21
25664;BME280;13522;50.018;20.014;2022-10-29T17:07:45;99377.49;;;15.82;99.07
25664;BME280;13522;50.018;20.014;2022-10-29T17:10:59;99396.55;;;15.79;100.00
25664;BME280;13522;50.018;20.014;2022-10-29T17:17:13;99394.47;;;15.65;100.00
25664;BME280;13522;50.018;20.014;2022-10-29T17:20:25;99401.69;;;15.65;100.00
25664;BME280;13522;50.018;20.014;2022-10-29T17:23:37;99390.59;;;15.59;100.00
25664;BME280;13522;50.018;20.014;2022-10-29T17:26:49;99391.41;;;15.52;100.00
25664;BME280;13522;50.018;20.014;2022-10-29T17:30:01;99398.75;;;15.50;100.00
25664;BME280;13522;50.018;20.014;2022-10-29T17:33:13;99400.23;;;15.44;100.00
25664;BME280;13522;50.018;20.014;2022-10-29T17:36:25;99396.47;;;15.37;100.00
25664;BME280;13522;50.018;20.014;2022-10-29T17:39:37;99398.27;;;15.29;100.00
25664;BME280;13522;50.018;20.014;2022-10-29T17:42:49;99405.62;;;15.27;100.00
25664;BME280;13522;50.018;20.014;2022-10-29T17:46:01;99403.41;;;15.22;100.00
25664;BME280;13522;50.018;20.014;2022-10-29T17:49:14;99405.69;;;15.17;100.00
25664;BME280;13522;50.018;20.014;2022-10-29T17:52:25;99401.81;;;15.12;100.00
25664;BME280;13522;50.018;20.014;2022-10-29T17:55:37;99406.97;;;15.05;100.00
25664;BME280;13522;50.018;20.014;2022-10-29T17:58:49;99410.46;;;15.06;100.00
25664;BME280;13522;50.018;20.014;2022-10-29T18:02:01;99408.41;;;15.00;100.00
25664;BME280;13522;50.018;20.014;2022-10-29T18:05:14;99403.39;;;14.97;100.00
25664;BME280;13522;50.018;20.014;2022-10-29T18:08:26;99412.72;;;14.93;100.00
25664;BME280;13522;50.018;20.014;2022-10-29T18:11:40;99402.92;;;14.84;100.00
25664;BME280;13522;50.018;20.014;2022-10-29T18:14:52;99411.27;;;14.81;100.00
25664;BME280;13522;50.018;20.014;2022-10-29T18:18:04;99402.89;;;14.75;100.00
25664;BME280;13522;50.018;20.014;2022-10-29T18:21:18;99403.34;;;14.71;100.00
25664;BME280;13522;50.018;20.014;2022-10-29T18:24:31;99403.80;;;14.66;100.00
25664;BME280;13522;50.018;20.014;2022-10-29T18:27:43;99410.59;;;14.61;100.00
25664;BME280;13522;50.018;20.014;2022-10-29T18:30:57;99402.86;;;14.58;100.00
25664;BME280;13522;50.018;20.014;2022-10-29T18:34:10;99402.66;;;14.51;100.00
25664;BME280;13522;50.018;20.014;2022-10-29T18:37:23;99392.05;;;14.42;100.00
25664;BME280;13522;50.018;20.014;2022-10-29T18:40:35;99400.19;;;14.40;100.00
25664;BME280;13522;50.018;20.014;2022-10-29T18:43:47;99411.36;;;14.36;100.00
25664;BME280;13522;50.018;20.014;2022-10-29T18:47:00;99405.33;;;14.34;100.00
25664;BME280;13522;50.018;20.014;2022-10-29T18:50:12;99397.19;;;14.26;100.00
25664;BME280;13522;50.018;20.014;2022-10-29T18:53:24;99404.52;;;14.24;100.00
25664;BME280;13522;50.018;20.014;2022-10-29T18:56:35;99401.76;;;14.16;100.00
25664;BME280;13522;50.018;20.014;2022-10-29T18:59:47;99400.38;;;14.12;100.00
25664;BME280;13522;50.018;20.014;2022-10-29T19:02:59;99398.99;;;14.08;100.00
25664;BME280;13522;50.018;20.014;2022-10-29T19:06:12;99406.59;;;14.03;100.00
25664;BME280;13522;50.018;20.014;2022-10-29T19:09:24;99406.91;;;14.00;100.00
25664;BME280;13522;50.018;20.014;2022-10-29T19:12:36;99415.08;;;13.98;100.00
25664;BME280;13522;50.018;20.014;2022-10-29T19:15:48;99412.53;;;13.97;100.00
25664;BME280;13522;50.018;20.014;2022-10-29T19:19:01;99413.70;;;13.94;100.00
25664;BME280;13522;50.018;20.014;2022-10-29T19:22:14;99414.83;;;13.91;100.00
25664;BME280;13522;50.018;20.014;2022-10-29T19:25:26;99420.31;;;13.90;100.00
25664;BME280;13522;50.018;20.014;2022-10-29T19:28:42;99430.31;;;13.88;100.00
25664;BME280;13522;50.018;20.014;2022-10-29T19:31:55;99433.95;;;13.87;100.00
25664;BME280;13522;50.018;20.014;2022-10-29T19:35:08;99431.13;;;13.88;100.00
25664;BME280;13522;50.018;20.014;2022-10-29T19:38:20;99434.95;;;13.86;100.00
25664;BME280;13522;50.018;20.014;2022-10-29T19:41:32;99430.74;;;13.83;100.00
25664;BME280;13522;50.018;20.014;2022-10-29T19:44:44;99434.53;;;13.81;100.00
25664;BME280;13522;50.018;20.014;2022-10-29T19:47:58;99433.15;;;13.77;100.00
25664;BME280;13522;50.018;20.014;2022-10-29T19:51:11;99437.56;;;13.68;100.00
25664;BME280;13522;50.018;20.014;2022-10-29T19:54:22;99442.33;;;13.65;100.00
25664;BME280;13522;50.018;20.014;2022-10-29T19:57:34;99437.57;;;13.59;100.00
25664;BME280;13522;50.018;20.014;2022-10-29T20:00:47;99439.16;;;13.52;100.00
25664;BME280;13522;50.018;20.014;2022-10-29T20:03:59;99428.79;;;13.49;100.00
25664;BME280;13522;50.018;20.014;2022-10-29T20:07:11;99432.42;;;13.48;100.00
25664;BME280;13522;50.018;20.014;2022-10-29T20:10:23;99418.96;;;13.40;100.00
25664;BME280;13522;50.018;20.014;2022-10-29T20:13:35;99422.64;;;13.39;100.00
25664;BME280;13522;50.018;20.014;2022-10-29T20:16:54;99428.24;;;13.36;100.00
25664;BME280;13522;50.018;20.014;2022-10-29T20:20:08;99439.77;;;13.36;100.00
25664;BME280;13522;50.018;20.014;2022-10-29T20:23:22;99434.42;;;13.36;100.00
25664;BME280;13522;50.018;20.014;2022-10-29T20:26:35;99440.03;;;13.33;100.00
25664;BME280;13522;50.018;20.014;2022-10-29T20:29:47;99434.00;;;13.31;100.00
25664;BME280;13522;50.018;20.014;2022-10-29T20:32:58;99435.70;;;13.32;100.00
25664;BME280;13522;50.018;20.014;2022-10-29T20:36:10;99432.76;;;13.26;100.00
25664;BME280;13522;50.018;20.014;2022-10-29T20:39:22;99434.46;;;13.27;100.00
25664;BME280;13522;50.018;20.014;2022-10-29T20:42:37;99443.28;;;13.27;100.00
25664;BME280;13522;50.018;20.014;2022-10-29T20:45:50;99439.80;;;13.27;100.00
25664;BME280;13522;50.018;20.014;2022-10-29T20:49:02;99436.42;;;13.25;100.00
25664;BME280;13522;50.018;20.014;2022-10-29T20:52:15;99442.73;;;13.24;100.00
25664;BME280;13522;50.018;20.014;2022-10-29T20:55:26;99439.64;;;13.28;100.00
25664;BME280;13522;50.018;20.014;2022-10-29T20:58:38;99435.86;;;13.31;100.00
25664;BME280;13522;50.018;20.014;2022-10-29T21:01:50;99439.49;;;13.30;100.00
25664;BME280;13522;50.018;20.014;2022-10-29T21:05:03;99444.13;;;13.28;100.00
25664;BME280;13522;50.018;20.014;2022-10-29T21:08:16;99446.80;;;13.28;100.00
25664;BME280;13522;50.018;20.014;2022-10-29T21:11:28;99443.16;;;13.29;100.00
25664;BME280;13522;50.018;20.014;2022-10-29T21:14:40;99444.83;;;13.30;100.00
25664;BME280;13522;50.018;20.014;2022-10-29T21:17:51;99444.55;;;13.33;100.00
25664;BME280;13522;50.018;20.014;2022-10-29T21:21:05;99445.53;;;13.32;100.00
25664;BME280;13522;50.018;20.014;2022-10-29T21:24:18;99441.58;;;13.36;100.00
25664;BME280;13522;50.018;20.014;2022-10-29T21:27:29;99437.25;;;13.35;100.00
25664;BME280;13522;50.018;20.014;2022-10-29T21:30:43;99426.42;;;13.36;100.00
25664;BME280;13522;50.018;20.014;2022-10-29T21:33:57;99421.24;;;13.35;100.00
25664;BME280;13522;50.018;20.014;2022-10-29T21:37:09;99430.91;;;13.36;100.00
25664;BME280;13522;50.018;20.014;2022-10-29T21:40:21;99434.85;;;13.32;100.00
25664;BME280;13522;50.018;20.014;2022-10-29T21:43:33;99432.19;;;13.32;100.00
25664;BME280;13522;50.018;20.014;2022-10-29T21:46:44;99412.54;;;13.33;100.00